Time;durP1;ratioP1;P1;durP2;ratioP2;P2;SDS_P1;SDS_P2;PMS_P1;PMS_P2;Temp;Humidity;BMP_temperature;BMP_pressure;BME280_temperature;BME280_humidity;BME280_pressure;Samples;Min_cycle;Max_cycle;Signal;HPM_P1;HPM_P2
2021/05/27 00:03:59;;;;;;;2.75;1.00;;;;;;;9.10;83.60;96282.81;5123919;57;20757;-73
2021/05/27 00:09:02;;;;;;;1.02;1.02;;;;;;;9.00;84.42;96298.53;5124000;57;20653;-73
2021/05/27 00:14:05;;;;;;;0.90;0.82;;;;;;;9.00;84.44;96286.75;5131902;57;20258;-73
2021/05/27 00:19:08;;;;;;;1.10;1.10;;;;;;;9.06;84.15;96290.47;5124058;57;20130;-73
2021/05/27 00:24:11;;;;;;;2.20;1.20;;;;;;;9.11;84.69;96276.09;5132092;57;20135;-73
2021/05/27 00:29:14;;;;;;;1.33;1.25;;;;;;;9.15;84.05;96290.50;5132286;57;20113;-73
2021/05/27 00:34:17;;;;;;;1.27;1.10;;;;;;;9.17;83.53;96279.78;5139393;57;20130;-73
2021/05/27 00:39:20;;;;;;;1.00;1.00;;;;;;;9.21;84.01;96278.41;5135224;57;20113;-74
2021/05/27 00:44:30;;;;;;;1.25;1.15;;;;;;;9.17;84.13;96291.59;5123275;57;20225;-73
2021/05/27 00:49:33;;;;;;;1.08;1.08;;;;;;;9.14;84.10;96291.69;5131380;57;20203;-73
2021/05/27 00:54:38;;;;;;;1.20;1.10;;;;;;;9.11;84.11;96289.88;5139774;57;20692;-73
2021/05/27 00:59:40;;;;;;;0.90;0.90;;;;;;;9.03;84.67;96292.13;5131454;57;20122;-73
2021/05/27 01:04:43;;;;;;;1.10;1.00;;;;;;;9.07;84.68;96292.75;5123401;57;20117;-73
2021/05/27 01:09:56;;;;;;;1.55;1.20;;;;;;;9.10;84.46;96300.13;5131375;57;20577;-73
2021/05/27 01:20:20;;;;;;;1.10;1.10;;;;;;;9.10;84.37;96299.34;5130522;57;20125;-74
2021/05/27 01:25:23;;;;;;;0.85;0.85;;;;;;;9.05;83.72;96288.91;5130836;57;20116;-73
2021/05/27 01:30:26;;;;;;;1.00;0.90;;;;;;;9.01;83.96;96296.56;5139635;57;20130;-73
2021/05/27 01:35:29;;;;;;;0.90;0.90;;;;;;;9.00;84.28;96286.75;5131006;57;20251;-74
2021/05/27 01:40:32;;;;;;;1.20;0.80;;;;;;;8.79;83.98;96304.88;5123236;57;20141;-73
2021/05/27 01:45:35;;;;;;;0.80;0.80;;;;;;;9.10;83.44;96316.66;5122722;57;20253;-73
2021/05/27 01:50:44;;;;;;;0.85;0.85;;;;;;;9.00;82.86;96314.31;5130971;57;20578;-74
2021/05/27 01:55:49;;;;;;;0.80;0.80;;;;;;;9.03;83.71;96314.19;5138933;57;20126;-73
2021/05/27 02:00:52;;;;;;;0.82;0.82;;;;;;;8.97;84.62;96315.22;5139232;57;20125;-73
2021/05/27 02:05:55;;;;;;;0.75;0.75;;;;;;;8.98;84.22;96314.75;5122446;57;20712;-74
2021/05/27 02:10:57;;;;;;;0.80;0.80;;;;;;;8.96;84.34;96319.19;5122847;57;20131;-73
2021/05/27 02:16:00;;;;;;;0.88;0.88;;;;;;;8.79;85.27;96315.91;5130269;57;20333;-73
2021/05/27 02:21:03;;;;;;;1.00;1.00;;;;;;;8.99;85.51;96319.06;5122718;57;20209;-74
2021/05/27 02:26:06;;;;;;;1.23;1.00;;;;;;;8.84;85.28;96301.53;5130234;57;20231;-73
2021/05/27 02:31:08;;;;;;;1.08;1.00;;;;;;;8.81;85.60;96320.94;5129927;57;20244;-74
2021/05/27 02:36:11;;;;;;;0.90;0.90;;;;;;;9.06;85.05;96315.25;5129889;57;20125;-74
2021/05/27 02:41:14;;;;;;;1.05;0.98;;;;;;;8.95;84.72;96315.69;5122215;57;20262;-73
2021/05/27 02:46:18;;;;;;;0.80;0.80;;;;;;;9.04;84.83;96325.97;5130053;57;20113;-73
2021/05/27 02:51:25;;;;;;;1.98;0.93;;;;;;;8.89;85.18;96313.97;5117793;57;20112;-74
2021/05/27 02:56:27;;;;;;;1.02;1.02;;;;;;;9.08;84.79;96310.06;5129867;57;20266;-73
2021/05/27 03:01:30;;;;;;;6.35;1.08;;;;;;;8.98;85.71;96322.28;5129546;57;20218;-73
2021/05/27 03:06:33;;;;;;;0.98;0.98;;;;;;;8.77;85.25;96303.78;5130850;57;20131;-73
2021/05/27 03:11:36;;;;;;;2.67;1.30;;;;;;;8.84;85.53;96318.06;5140782;57;20185;-74
2021/05/27 03:16:39;;;;;;;1.75;1.23;;;;;;;8.77;86.23;96320.31;5132670;57;20671;-73
2021/05/27 03:21:42;;;;;;;1.30;1.20;;;;;;;8.94;84.93;96327.13;5141388;57;20117;-73
2021/05/27 03:26:44;;;;;;;0.85;0.85;;;;;;;8.95;85.54;96323.94;5132888;57;20116;-73
2021/05/27 03:31:47;;;;;;;1.52;1.20;;;;;;;8.91;85.25;96326.03;5132560;57;20210;-73
2021/05/27 03:36:50;;;;;;;1.20;1.20;;;;;;;8.72;85.99;96329.94;5132812;57;20196;-73
2021/05/27 03:41:53;;;;;;;1.98;1.08;;;;;;;8.75;86.12;96331.00;5132308;57;20199;-74
2021/05/27 03:46:56;;;;;;;1.00;1.00;;;;;;;8.86;85.74;96336.91;5124992;57;20325;-73
2021/05/27 03:51:59;;;;;;;2.67;1.10;;;;;;;8.83;85.23;96335.03;5132434;57;20166;-73
2021/05/27 03:57:02;;;;;;;1.33;1.23;;;;;;;8.76;86.29;96340.81;5141370;57;20193;-74
2021/05/27 04:02:04;;;;;;;1.35;0.98;;;;;;;8.98;85.79;96352.59;5125101;57;20298;-73
2021/05/27 04:07:11;;;;;;;0.88;0.88;;;;;;;8.93;85.50;96348.44;5124364;57;20179;-73
2021/05/27 04:17:36;;;;;;;1.45;1.30;;;;;;;9.17;85.14;96334.91;5140282;57;20286;-73
2021/05/27 04:22:44;;;;;;;1.50;1.40;;;;;;;9.16;85.47;96338.88;5132000;57;20131;-74
2021/05/27 04:27:47;;;;;;;2.00;1.05;;;;;;;9.38;85.00;96340.34;5123389;57;20122;-74
2021/05/27 04:38:05;;;;;;;1.23;1.13;;;;;;;9.57;84.20;96329.38;5131573;57;20317;-73
2021/05/27 04:43:09;;;;;;;1.50;1.40;;;;;;;9.57;83.05;96335.69;5131441;57;20121;-74
2021/05/27 04:48:13;;;;;;;0.98;0.98;;;;;;;9.64;82.69;96345.66;5131120;57;20223;-73
2021/05/27 04:53:17;;;;;;;1.23;1.13;;;;;;;9.44;83.36;96353.56;5131526;57;20152;-74
2021/05/27 04:58:21;;;;;;;1.20;1.10;;;;;;;9.62;82.47;96348.88;5131415;57;20115;-73
2021/05/27 05:03:24;;;;;;;1.00;1.00;;;;;;;9.31;82.67;96334.38;5131102;57;20122;-73
2021/05/27 05:08:26;;;;;;;1.42;1.13;;;;;;;9.36;82.59;96342.81;5123759;57;20792;-74
2021/05/27 05:13:29;;;;;;;1.23;1.13;;;;;;;9.57;83.14;96355.00;5136399;57;20253;-73
2021/05/27 05:18:32;;;;;;;1.33;1.23;;;;;;;9.71;81.81;96343.41;5147544;57;20143;-73
2021/05/27 05:23:35;;;;;;;1.48;1.38;;;;;;;9.79;81.19;96346.63;5139536;57;20577;-74
2021/05/27 05:28:38;;;;;;;1.15;1.10;;;;;;;9.85;81.75;96351.09;5139998;57;20206;-73
2021/05/27 05:33:40;;;;;;;1.00;1.00;;;;;;;10.05;80.83;96356.97;5139310;57;20551;-73
2021/05/27 05:38:43;;;;;;;1.38;1.27;;;;;;;9.84;80.91;96357.81;5122960;57;20640;-74
2021/05/27 05:43:46;;;;;;;1.75;1.25;;;;;;;9.79;80.86;96385.28;5130774;57;20143;-73
2021/05/27 05:48:49;;;;;;;1.75;1.17;;;;;;;9.58;82.36;96380.59;5130979;57;20214;-73
2021/05/27 05:53:51;;;;;;;1.13;1.13;;;;;;;9.75;82.41;96385.41;5130311;57;20662;-73
2021/05/27 05:58:54;;;;;;;3.72;1.00;;;;;;;9.87;81.23;96376.25;5139132;57;20130;-73
2021/05/27 06:03:57;;;;;;;1.30;1.20;;;;;;;9.71;80.93;96368.22;5139412;57;20143;-73
2021/05/27 06:09:00;;;;;;;1.88;1.10;;;;;;;9.97;81.66;96371.53;5139206;57;20638;-73
2021/05/27 06:14:03;;;;;;;1.05;1.05;;;;;;;10.09;80.78;96376.13;5130250;57;20753;-73
2021/05/27 06:19:06;;;;;;;1.30;1.20;;;;;;;9.97;81.69;96380.56;5138577;57;20117;-73
2021/05/27 06:24:09;;;;;;;1.17;1.08;;;;;;;10.64;77.79;96382.50;5130089;57;20146;-73
2021/05/27 06:29:12;;;;;;;5.45;4.68;;;;;;;11.14;77.93;96400.41;5130307;57;20214;-73
2021/05/27 06:34:15;;;;;;;1.00;1.00;;;;;;;11.63;75.36;96389.06;5139180;57;20213;-73
2021/05/27 06:39:17;;;;;;;1.52;1.42;;;;;;;11.41;77.04;96395.59;5122157;57;20239;-73
2021/05/27 06:44:20;;;;;;;0.95;0.95;;;;;;;11.66;75.35;96404.72;5124686;57;20157;-74
2021/05/27 06:49:23;;;;;;;2.05;1.20;;;;;;;12.00;75.03;96396.00;5124747;57;20201;-73
2021/05/27 06:54:26;;;;;;;1.20;1.20;;;;;;;11.98;76.21;96401.25;5124723;57;20207;-73
2021/05/27 06:59:28;;;;;;;1.25;1.15;;;;;;;12.41;74.14;96388.81;5130048;57;20135;-74
2021/05/27 07:04:31;;;;;;;1.10;1.10;;;;;;;12.37;73.38;96391.00;5139683;57;20657;-73
2021/05/27 07:09:33;;;;;;;1.80;1.38;;;;;;;12.43;74.76;96389.09;5131125;57;20122;-73
2021/05/27 07:14:36;;;;;;;1.42;1.38;;;;;;;11.62;76.07;96387.53;5119786;57;20113;-73
2021/05/27 07:19:39;;;;;;;1.55;1.45;;;;;;;11.27;76.34;96403.78;5133083;57;20772;-73
2021/05/27 07:24:41;;;;;;;1.33;1.30;;;;;;;10.74;78.13;96406.16;5114848;57;20225;-73
2021/05/27 07:29:47;;;;;;;2.83;2.35;;;;;;;11.13;77.21;96391.34;5127564;57;20271;-73
2021/05/27 07:34:50;;;;;;;1.95;1.55;;;;;;;10.83;76.79;96400.63;5136168;57;20630;-73
2021/05/27 07:39:53;;;;;;;0.95;0.95;;;;;;;11.49;75.05;96401.56;5122434;57;20144;-74
2021/05/27 07:44:55;;;;;;;2.38;2.17;;;;;;;10.78;77.73;96417.81;5137367;57;20122;-73
2021/05/27 07:50:00;;;;;;;1.75;1.65;;;;;;;11.05;76.50;96419.78;5139130;57;20130;-73
2021/05/27 07:55:04;;;;;;;3.95;1.67;;;;;;;12.03;75.75;96401.34;5137257;57;20125;-73
2021/05/27 08:00:09;;;;;;;1.40;1.35;;;;;;;12.00;71.26;96413.38;5139796;57;20550;-73
2021/05/27 08:05:13;;;;;;;1.10;1.10;;;;;;;12.65;69.47;96425.59;5139123;57;20139;-73
2021/05/27 08:10:16;;;;;;;1.73;1.10;;;;;;;12.67;69.96;96418.34;5140164;57;20192;-73
2021/05/27 08:15:20;;;;;;;1.73;1.48;;;;;;;12.89;68.46;96438.19;5140493;57;20211;-73
2021/05/27 08:20:22;;;;;;;0.95;0.95;;;;;;;13.06;69.10;96429.47;5135090;57;20670;-74
2021/05/27 08:25:25;;;;;;;1.15;1.13;;;;;;;12.48;68.31;96436.34;5140464;57;20121;-73
2021/05/27 08:30:27;;;;;;;1.33;1.23;;;;;;;12.03;66.37;96431.06;5137823;57;20116;-73
2021/05/27 08:35:30;;;;;;;1.85;1.75;;;;;;;12.80;69.79;96435.50;5155317;57;20121;-74
2021/05/27 08:40:33;;;;;;;2.38;1.27;;;;;;;12.27;66.37;96439.41;5150963;57;20131;-73
2021/05/27 08:45:39;;;;;;;1.98;1.73;;;;;;;12.00;66.19;96435.53;5139564;57;20125;-74
2021/05/27 08:50:47;;;;;;;1.52;1.33;;;;;;;12.56;67.15;96437.53;5140242;57;20126;-74
2021/05/27 08:55:50;;;;;;;1.20;1.10;;;;;;;12.59;66.30;96438.59;5136511;57;20139;-74
2021/05/27 09:00:53;;;;;;;1.10;1.00;;;;;;;12.34;69.19;96441.81;5139644;57;20126;-74
2021/05/27 09:06:00;;;;;;;1.20;1.20;;;;;;;12.32;69.75;96449.84;5137425;57;20170;-73
2021/05/27 09:11:05;;;;;;;0.88;0.88;;;;;;;11.74;68.98;96469.63;5137148;57;20135;-73
2021/05/27 09:16:11;;;;;;;2.30;1.20;;;;;;;11.79;68.25;96485.59;5134485;57;20137;-73
2021/05/27 09:21:31;;;;;;;1.10;1.10;;;;;;;11.51;70.20;96471.81;5087781;57;20130;-73
2021/05/27 09:26:55;;;;;;;1.15;1.10;;;;;;;11.02;71.81;96474.03;5130673;57;20148;-73
2021/05/27 09:32:05;;;;;;;1.17;1.00;;;;;;;11.68;71.98;96474.25;5124410;57;20108;-73
2021/05/27 09:37:29;;;;;;;1.88;1.13;;;;;;;12.22;70.92;96474.06;5134863;57;20662;-73
2021/05/27 09:42:49;;;;;;;1.00;1.00;;;;;;;12.14;68.79;96475.63;5125305;57;20131;-73
2021/05/27 09:47:52;;;;;;;1.77;1.52;;;;;;;11.46;68.79;96474.44;5139064;57;20614;-73
2021/05/27 09:52:55;;;;;;;1.35;1.25;;;;;;;11.72;70.32;96480.41;5142422;57;20635;-73
2021/05/27 09:58:07;;;;;;;2.17;1.38;;;;;;;11.62;70.37;96492.72;5130512;57;20231;-73
2021/05/27 10:03:25;;;;;;;1.77;1.58;;;;;;;12.52;71.31;96489.59;5127931;57;20113;-73
2021/05/27 10:08:30;;;;;;;5.97;1.83;;;;;;;12.68;68.46;96486.44;5123282;57;20118;-73
2021/05/27 10:13:41;;;;;;;3.28;1.63;;;;;;;13.08;67.79;96477.69;5128500;57;20121;-73
2021/05/27 10:18:45;;;;;;;1.77;1.40;;;;;;;12.47;68.52;96468.06;5121361;57;20674;-73
2021/05/27 10:23:49;;;;;;;1.77;1.67;;;;;;;13.17;65.85;96460.97;5133441;57;20767;-73
2021/05/27 10:28:54;;;;;;;1.55;1.30;;;;;;;14.71;65.81;96464.72;5139151;57;20153;-73
2021/05/27 10:33:58;;;;;;;1.35;1.20;;;;;;;14.11;60.66;96459.78;5138432;57;20139;-73
2021/05/27 10:39:01;;;;;;;3.58;1.58;;;;;;;13.91;63.94;96467.31;5138837;57;20135;-73
2021/05/27 10:44:04;;;;;;;1.17;1.08;;;;;;;13.37;58.85;96466.63;5129744;57;20113;-73
2021/05/27 10:49:06;;;;;;;1.63;1.20;;;;;;;13.26;61.58;96471.19;5121741;57;20243;-74
2021/05/27 10:54:14;;;;;;;1.55;1.02;;;;;;;13.98;60.04;96455.78;5137885;57;20227;-73
2021/05/27 10:59:18;;;;;;;3.13;1.20;;;;;;;14.79;59.93;96465.09;5137614;57;20138;-74
2021/05/27 11:04:22;;;;;;;1.05;0.90;;;;;;;14.34;58.33;96456.13;5136127;57;20227;-73
2021/05/27 11:09:35;;;;;;;1.67;1.17;;;;;;;13.68;60.56;96469.69;5129542;57;20134;-74
2021/05/27 11:14:47;;;;;;;1.42;1.33;;;;;;;14.07;60.81;96461.22;5125065;57;20139;-73
2021/05/27 11:19:58;;;;;;;1.35;1.00;;;;;;;14.67;56.57;96463.41;5116144;57;20215;-75
2021/05/27 11:25:07;;;;;;;1.33;1.00;;;;;;;13.64;58.96;96468.34;5119595;57;20113;-73
2021/05/27 11:30:23;;;;;;;0.88;0.88;;;;;;;14.28;56.72;96460.81;5131578;57;20831;-72
2021/05/27 11:35:29;;;;;;;0.80;0.80;;;;;;;13.70;56.48;96449.81;5123468;57;20122;-73
2021/05/27 11:40:37;;;;;;;1.15;1.05;;;;;;;15.67;56.61;96449.38;5128375;57;20177;-72
2021/05/27 11:45:43;;;;;;;0.80;0.80;;;;;;;17.03;48.66;96443.69;5137624;57;20121;-73
2021/05/27 11:50:47;;;;;;;1.00;1.00;;;;;;;18.30;49.01;96431.91;5137132;57;20572;-73
2021/05/27 11:55:57;;;;;;;0.82;0.82;;;;;;;17.32;50.44;96425.00;5129174;57;20134;-74
2021/05/27 12:01:27;;;;;;;0.90;0.90;;;;;;;17.54;48.34;96431.41;5129801;57;20739;-74
2021/05/27 12:06:49;;;;;;;0.95;0.95;;;;;;;16.71;49.73;96439.50;5120448;57;20112;-74
2021/05/27 12:11:52;;;;;;;0.80;0.80;;;;;;;17.88;48.01;96437.81;5120889;57;20108;-74
2021/05/27 12:16:56;;;;;;;1.27;1.10;;;;;;;18.12;45.88;96435.25;5124706;57;20166;-73
2021/05/27 12:21:59;;;;;;;1.10;0.90;;;;;;;17.61;46.60;96435.75;5137908;57;20711;-74
2021/05/27 12:27:01;;;;;;;0.80;0.80;;;;;;;19.12;45.33;96435.78;5140057;57;20362;-74
2021/05/27 12:32:08;;;;;;;0.70;0.70;;;;;;;18.37;49.12;96427.84;5139291;57;20117;-73
2021/05/27 12:37:11;;;;;;;0.90;0.90;;;;;;;18.04;44.55;96434.25;5139519;57;20156;-74
2021/05/27 12:42:13;;;;;;;1.33;1.23;;;;;;;19.24;41.29;96431.66;5115272;57;20214;-74
2021/05/27 12:47:19;;;;;;;1.10;1.00;;;;;;;17.35;51.61;96427.53;5135139;57;20134;-73
2021/05/27 12:52:38;;;;;;;4.88;1.30;;;;;;;19.31;43.14;96424.75;5129642;57;20126;-74
2021/05/27 12:57:56;;;;;;;0.90;0.90;;;;;;;20.01;40.37;96427.56;5130344;57;20122;-73
2021/05/27 13:03:00;;;;;;;1.20;1.10;;;;;;;17.32;43.80;96422.97;5135927;57;20745;-74
2021/05/27 13:08:04;;;;;;;0.90;0.90;;;;;;;18.99;44.31;96409.63;5123339;57;20582;-74
2021/05/27 13:13:08;;;;;;;1.52;1.10;;;;;;;18.71;41.91;96408.94;5115070;57;20242;-74
2021/05/27 13:18:13;;;;;;;1.20;1.10;;;;;;;18.60;41.64;96415.34;5129432;57;20134;-74
2021/05/27 13:23:23;;;;;;;1.10;1.10;;;;;;;19.39;42.69;96414.53;5138936;57;20125;-73
2021/05/27 13:28:27;;;;;;;1.05;1.05;;;;;;;19.29;42.80;96404.88;5126504;57;20661;-74
2021/05/27 13:33:30;;;;;;;1.63;1.10;;;;;;;19.77;41.99;96410.69;5129970;57;20112;-74
2021/05/27 13:38:33;;;;;;;1.95;1.10;;;;;;;19.54;39.05;96400.91;5122918;57;20231;-74
2021/05/27 13:43:36;;;;;;;1.23;1.08;;;;;;;19.77;41.79;96407.13;5130802;57;20665;-74
2021/05/27 13:48:38;;;;;;;1.48;1.13;;;;;;;19.02;43.79;96403.72;5122884;57;20122;-74
2021/05/27 13:53:41;;;;;;;0.95;0.73;;;;;;;18.72;42.22;96402.09;5130699;57;20223;-74
2021/05/27 13:58:44;;;;;;;1.95;0.93;;;;;;;16.57;48.17;96395.81;5138523;57;20675;-74
2021/05/27 14:03:46;;;;;;;1.17;0.98;;;;;;;18.54;44.74;96392.97;5130704;57;20232;-75
2021/05/27 14:08:49;;;;;;;1.05;0.98;;;;;;;17.51;45.36;96395.31;5137190;57;20577;-74
2021/05/27 14:13:52;;;;;;;1.00;0.88;;;;;;;19.08;42.97;96400.91;5121339;57;20679;-74
2021/05/27 14:18:55;;;;;;;1.13;0.80;;;;;;;18.98;42.93;96382.88;5137500;57;20586;-74
2021/05/27 14:23:58;;;;;;;1.48;0.90;;;;;;;17.20;42.26;96397.03;5137317;57;20218;-74
2021/05/27 14:29:02;;;;;;;0.90;0.80;;;;;;;18.67;44.15;96400.06;5129972;57;20160;-74
2021/05/27 14:34:06;;;;;;;0.90;0.90;;;;;;;17.51;43.81;96398.13;5139736;57;20100;-73
2021/05/27 14:39:09;;;;;;;3.13;0.93;;;;;;;19.34;43.92;96399.25;5140372;57;20350;-74
2021/05/27 14:44:12;;;;;;;1.30;1.20;;;;;;;20.39;40.38;96408.91;5130022;57;20160;-74
2021/05/27 14:49:14;;;;;;;2.55;1.02;;;;;;;19.04;40.48;96397.63;5121989;57;20749;-74
2021/05/27 14:54:18;;;;;;;1.02;1.00;;;;;;;17.92;42.56;96396.38;5137468;57;20219;-74
2021/05/27 14:59:21;;;;;;;1.75;1.35;;;;;;;16.30;46.55;96401.97;5129804;57;20135;-74
2021/05/27 15:04:25;;;;;;;1.55;1.45;;;;;;;16.26;48.78;96404.22;5121846;57;20117;-74
2021/05/27 15:09:27;;;;;;;0.93;0.93;;;;;;;15.98;48.96;96412.41;5122803;57;20659;-74
2021/05/27 15:14:30;;;;;;;1.63;1.20;;;;;;;15.71;48.97;96410.94;5124560;57;20122;-74
2021/05/27 15:19:33;;;;;;;1.30;1.30;;;;;;;15.19;49.61;96420.53;5123632;57;20236;-74
2021/05/27 15:24:36;;;;;;;1.58;1.48;;;;;;;14.49;50.44;96413.63;5131264;57;20214;-74
2021/05/27 15:29:39;;;;;;;1.70;1.40;;;;;;;14.44;51.12;96422.63;5141014;57;20536;-73
2021/05/27 15:34:42;;;;;;;2.85;1.40;;;;;;;14.14;51.55;96425.47;5132027;57;20108;-73
2021/05/27 15:39:44;;;;;;;4.85;1.00;;;;;;;14.13;52.94;96435.09;5124860;57;20506;-73
2021/05/27 15:44:47;;;;;;;1.23;1.23;;;;;;;13.86;55.86;96452.09;5140739;57;20324;-74
2021/05/27 15:49:50;;;;;;;1.63;1.52;;;;;;;12.98;61.30;96462.31;5139717;57;20131;-74
2021/05/27 15:54:53;;;;;;;1.52;1.42;;;;;;;12.66;66.03;96480.59;5129914;57;20724;-73
2021/05/27 15:59:58;;;;;;;2.50;2.30;;;;;;;11.99;71.19;96491.38;5130510;57;20234;-73
2021/05/27 16:05:01;;;;;;;5.72;3.58;;;;;;;11.54;74.77;96478.41;5131460;57;20130;-74
2021/05/27 16:10:06;;;;;;;3.17;2.65;;;;;;;11.82;74.08;96471.63;5140270;57;20104;-74
2021/05/27 16:15:09;;;;;;;4.15;3.60;;;;;;;12.31;72.52;96459.38;5139743;57;20116;-73
2021/05/27 16:20:12;;;;;;;5.75;5.25;;;;;;;13.23;68.27;96467.38;5130543;57;20135;-74
2021/05/27 16:25:15;;;;;;;1.85;1.75;;;;;;;14.31;63.56;96478.56;5139301;57;20197;-74
2021/05/27 16:30:18;;;;;;;11.40;5.95;;;;;;;13.96;65.05;96467.38;5138200;57;20104;-74
2021/05/27 16:40:40;;;;;;;1.88;1.77;;;;;;;13.58;62.75;96479.38;5137726;57;20131;-74
2021/05/27 16:45:44;;;;;;;2.00;1.58;;;;;;;13.97;64.45;96474.50;5129028;57;20675;-73
2021/05/27 16:50:47;;;;;;;1.70;1.60;;;;;;;14.12;65.24;96486.34;5130177;57;20121;-74
2021/05/27 16:55:49;;;;;;;2.33;1.60;;;;;;;14.07;65.79;96477.91;5139598;57;20125;-74
2021/05/27 17:00:54;;;;;;;1.63;1.45;;;;;;;13.84;64.56;96484.38;5139829;57;20135;-74
2021/05/27 17:05:57;;;;;;;1.50;1.40;;;;;;;14.03;66.72;96492.00;5128920;57;20108;-74
2021/05/27 17:11:00;;;;;;;1.90;1.80;;;;;;;13.93;65.26;96478.72;5854035;46;20083;-74
2021/05/27 17:16:03;;;;;;;1.70;1.60;;;;;;;13.88;66.03;96474.59;5120973;57;20227;-74
2021/05/27 17:21:05;;;;;;;2.63;2.30;;;;;;;13.51;67.60;96479.00;5140130;57;20555;-74
2021/05/27 17:26:08;;;;;;;2.03;1.92;;;;;;;13.23;69.21;96475.69;5140690;57;20134;-74
2021/05/27 17:31:11;;;;;;;2.75;1.92;;;;;;;13.14;69.07;96486.13;5142128;57;20545;-74
2021/05/27 17:36:14;;;;;;;2.05;1.70;;;;;;;13.12;69.85;96486.56;5153910;57;20116;-74
2021/05/27 17:41:17;;;;;;;3.45;1.60;;;;;;;13.15;69.74;96485.63;5150234;57;20107;-75
2021/05/27 17:46:20;;;;;;;3.65;2.70;;;;;;;13.11;70.79;96489.84;5147642;57;20111;-75
2021/05/27 17:51:25;;;;;;;2.35;2.25;;;;;;;13.23;70.92;96494.38;5142672;57;20117;-74
2021/05/27 17:56:28;;;;;;;2.13;2.00;;;;;;;12.60;72.00;96498.31;5138524;57;20157;-73
2021/05/27 18:01:30;;;;;;;4.38;2.15;;;;;;;12.37;70.44;96513.69;5127501;57;20565;-74
2021/05/27 18:06:34;;;;;;;2.95;2.00;;;;;;;12.13;73.57;96537.81;5154028;57;20116;-74
2021/05/27 18:11:37;;;;;;;2.83;2.08;;;;;;;11.82;74.15;96531.75;5360830;46;20117;-74
2021/05/27 18:16:39;;;;;;;1.73;1.50;;;;;;;11.62;74.04;96539.75;5139170;57;20117;-74
2021/05/27 18:21:42;;;;;;;2.25;2.05;;;;;;;11.49;73.77;96531.59;5138270;57;20126;-74
2021/05/27 18:26:44;;;;;;;1.92;1.83;;;;;;;11.65;75.34;96542.34;5126577;57;20131;-74
2021/05/27 18:31:47;;;;;;;8.07;6.38;;;;;;;11.69;74.45;96553.31;5133061;57;20108;-77
2021/05/27 18:36:51;;;;;;;2.80;2.60;;;;;;;11.73;75.08;96548.38;5118930;57;20125;-73
2021/05/27 18:41:54;;;;;;;2.30;2.10;;;;;;;11.57;76.24;96548.69;5115183;57;20131;-74
2021/05/27 18:46:57;;;;;;;1.73;1.60;;;;;;;11.47;76.27;96570.03;5117802;57;20122;-73
2021/05/27 18:52:00;;;;;;;2.22;1.70;;;;;;;11.24;76.43;96573.44;5117248;57;20126;-73
2021/05/27 18:57:03;;;;;;;1.30;1.30;;;;;;;11.10;76.85;96569.28;5118644;57;20122;-73
2021/05/27 19:02:07;;;;;;;2.10;2.00;;;;;;;10.65;78.18;96567.19;5121291;57;20118;-73
2021/05/27 19:07:09;;;;;;;1.45;1.35;;;;;;;10.63;78.21;96557.81;5120032;57;20122;-73
2021/05/27 19:12:12;;;;;;;1.60;1.50;;;;;;;10.42;79.00;96569.75;5120993;57;20131;-73
2021/05/27 19:17:15;;;;;;;4.43;1.70;;;;;;;10.07;80.25;96580.91;5126580;57;20136;-73
2021/05/27 19:22:17;;;;;;;2.00;1.80;;;;;;;9.90;80.11;96584.34;5124665;57;20135;-74
2021/05/27 19:27:20;;;;;;;3.35;1.80;;;;;;;10.06;80.38;96584.88;5120462;57;20947;-74
2021/05/27 19:32:22;;;;;;;1.70;1.60;;;;;;;9.99;80.00;96590.69;5123752;57;20144;-73
2021/05/27 19:37:25;;;;;;;2.83;1.30;;;;;;;9.91;80.38;96600.44;5121249;57;20249;-73
2021/05/27 19:42:29;;;;;;;1.73;1.40;;;;;;;9.94;80.26;96607.06;5120835;57;20123;-73
2021/05/27 19:47:32;;;;;;;1.88;1.77;;;;;;;9.85;81.29;96612.53;5130993;57;20121;-73
2021/05/27 19:52:36;;;;;;;1.60;1.55;;;;;;;10.14;79.94;96615.78;5126170;57;20655;-73
2021/05/27 19:57:39;;;;;;;1.70;1.50;;;;;;;10.06;80.65;96626.28;5131146;57;20139;-73
2021/05/27 20:02:43;;;;;;;1.60;1.50;;;;;;;9.98;81.05;96629.78;5127738;57;20136;-73
2021/05/27 20:07:45;;;;;;;2.03;1.70;;;;;;;10.16;80.48;96640.97;5131906;57;20130;-73
2021/05/27 20:12:48;;;;;;;1.77;1.67;;;;;;;10.19;79.79;96637.31;5132588;57;20162;-74
2021/05/27 20:17:50;;;;;;;1.85;1.75;;;;;;;10.25;80.21;96645.75;5132293;57;20126;-74
2021/05/27 20:22:53;;;;;;;1.55;1.52;;;;;;;9.96;80.91;96646.03;5130003;57;20126;-73
2021/05/27 20:27:56;;;;;;;2.28;2.08;;;;;;;9.98;81.41;96649.09;5127375;57;20109;-74
2021/05/27 20:32:59;;;;;;;2.25;2.10;;;;;;;9.97;80.61;96637.28;5135043;57;20596;-73
2021/05/27 20:38:03;;;;;;;3.50;1.88;;;;;;;10.05;81.13;96657.13;5128093;57;20131;-73
2021/05/27 20:43:06;;;;;;;1.80;1.70;;;;;;;10.07;80.62;96654.69;5129159;57;20944;-74
2021/05/27 20:48:09;;;;;;;2.58;1.90;;;;;;;10.06;81.18;96653.16;5130332;57;20104;-73
2021/05/27 20:53:11;;;;;;;2.20;2.05;;;;;;;10.15;80.80;96669.03;5128710;57;20131;-74
2021/05/27 20:58:14;;;;;;;4.85;1.98;;;;;;;10.17;81.37;96670.13;5122999;57;20132;-74
2021/05/27 21:03:16;;;;;;;2.08;1.85;;;;;;;10.20;81.34;96671.97;5129198;57;20104;-74
2021/05/27 21:08:19;;;;;;;2.08;1.98;;;;;;;10.19;81.28;96673.19;5132014;57;20117;-74
2021/05/27 21:13:22;;;;;;;2.58;2.28;;;;;;;10.29;80.16;96682.31;5130885;57;20135;-74
2021/05/27 21:18:25;;;;;;;4.97;3.88;;;;;;;9.91;80.98;96674.97;5131475;57;20616;-74
2021/05/27 21:23:28;;;;;;;3.03;2.13;;;;;;;9.93;81.28;96674.50;5137175;57;20210;-74
2021/05/27 21:28:31;;;;;;;3.42;2.40;;;;;;;9.99;81.00;96670.75;5126645;57;20643;-74
2021/05/27 21:33:34;;;;;;;2.45;2.25;;;;;;;10.01;81.55;96676.59;5123936;57;20751;-74
2021/05/27 21:38:37;;;;;;;2.38;2.28;;;;;;;10.02;81.59;96667.06;5126300;57;20596;-74
2021/05/27 21:43:40;;;;;;;2.47;2.38;;;;;;;9.89;82.14;96665.59;5128145;57;20188;-74
2021/05/27 21:48:42;;;;;;;2.58;2.38;;;;;;;9.82;82.49;96669.38;5128950;57;20648;-74
2021/05/27 21:53:45;;;;;;;2.50;2.28;;;;;;;9.80;82.35;96663.53;5130767;57;20135;-74
2021/05/27 21:58:48;;;;;;;2.10;2.00;;;;;;;9.82;82.87;96674.91;5132038;57;20139;-74
2021/05/27 22:03:52;;;;;;;3.47;2.33;;;;;;;9.83;83.10;96673.69;5130808;57;20769;-74
2021/05/27 22:08:55;;;;;;;2.55;2.10;;;;;;;10.17;82.63;96680.41;5126775;57;20278;-74
2021/05/27 22:13:57;;;;;;;3.13;2.00;;;;;;;9.97;83.07;96662.13;5127471;57;20640;-74
2021/05/27 22:19:00;;;;;;;3.03;2.50;;;;;;;9.98;83.21;96682.22;5124047;57;20121;-74
2021/05/27 22:24:04;;;;;;;2.35;2.17;;;;;;;10.11;82.60;96694.00;5125788;57;20129;-74
2021/05/27 22:29:07;;;;;;;4.28;2.47;;;;;;;10.24;83.19;96680.13;5137393;57;20121;-74
2021/05/27 22:34:10;;;;;;;2.72;2.53;;;;;;;10.14;82.29;96675.75;5128404;57;20588;-74
2021/05/27 22:39:13;;;;;;;2.53;2.35;;;;;;;10.05;82.62;96681.97;5119346;57;20117;-73
2021/05/27 22:44:15;;;;;;;3.75;2.38;;;;;;;10.00;83.26;96669.50;5129054;57;20126;-73
2021/05/27 22:49:18;;;;;;;3.38;2.30;;;;;;;10.13;82.97;96663.19;5129859;57;20139;-73
2021/05/27 22:54:21;;;;;;;2.63;2.45;;;;;;;10.03;84.41;96656.81;5123027;57;20131;-74
2021/05/27 22:59:23;;;;;;;2.72;2.53;;;;;;;10.06;84.32;96658.69;5121641;57;20720;-74
2021/05/27 23:04:26;;;;;;;2.55;2.35;;;;;;;10.12;83.96;96656.91;5131286;57;20139;-73
2021/05/27 23:09:28;;;;;;;3.30;2.50;;;;;;;10.08;84.05;96651.47;5137686;57;20130;-74
2021/05/27 23:14:31;;;;;;;3.40;2.60;;;;;;;10.03;83.43;96652.06;5138325;57;20125;-73
2021/05/27 23:19:34;;;;;;;2.80;2.60;;;;;;;9.86;84.29;96656.22;5138460;57;20144;-73
2021/05/27 23:24:36;;;;;;;5.13;2.78;;;;;;;9.80;84.81;96660.00;5139125;57;20144;-73
2021/05/27 23:29:39;;;;;;;3.95;2.67;;;;;;;9.97;84.75;96651.09;5141456;57;20134;-73
2021/05/27 23:34:42;;;;;;;3.38;2.58;;;;;;;10.06;84.17;96645.63;5125810;57;20118;-74
2021/05/27 23:39:44;;;;;;;2.97;2.78;;;;;;;10.15;84.21;96647.72;5121414;57;20677;-74
2021/05/27 23:44:47;;;;;;;2.92;2.60;;;;;;;10.09;84.12;96641.97;5121120;57;20113;-74
2021/05/27 23:49:50;;;;;;;3.17;2.70;;;;;;;10.00;84.28;96649.41;5121964;57;20141;-74
2021/05/27 23:54:53;;;;;;;3.30;2.80;;;;;;;9.99;84.66;96648.66;5122786;57;20136;-74
2021/05/27 23:59:56;;;;;;;3.13;2.80;;;;;;;10.02;84.36;96647.75;5128124;57;20140;-74
